sensor_id;sensor_type;location;lat;lon;timestamp;P1;durP1;ratioP1;P2;durP2;ratioP2
62256;SDS011;48240;52.962;5.790;2022-12-05T00:03:37;9.13;;;6.68;;
62256;SDS011;48240;52.962;5.790;2022-12-05T00:06:03;10.57;;;6.63;;
62256;SDS011;48240;52.962;5.790;2022-12-05T00:08:29;9.65;;;7.18;;
62256;SDS011;48240;52.962;5.790;2022-12-05T00:10:56;9.75;;;6.97;;
62256;SDS011;48240;52.962;5.790;2022-12-05T00:13:22;11.20;;;7.75;;
62256;SDS011;48240;52.962;5.790;2022-12-05T00:15:48;10.30;;;6.97;;
62256;SDS011;48240;52.962;5.790;2022-12-05T00:18:14;9.27;;;6.90;;
62256;SDS011;48240;52.962;5.790;2022-12-05T00:20:44;9.48;;;7.00;;
62256;SDS011;48240;52.962;5.790;2022-12-05T00:23:10;9.77;;;6.90;;
62256;SDS011;48240;52.962;5.790;2022-12-05T00:25:36;10.50;;;6.72;;
62256;SDS011;48240;52.962;5.790;2022-12-05T00:28:02;9.32;;;6.50;;
62256;SDS011;48240;52.962;5.790;2022-12-05T00:30:28;9.43;;;7.18;;
62256;SDS011;48240;52.962;5.790;2022-12-05T00:32:55;9.30;;;6.40;;
62256;SDS011;48240;52.962;5.790;2022-12-05T00:35:21;12.07;;;7.32;;
62256;SDS011;48240;52.962;5.790;2022-12-05T00:37:47;9.15;;;6.35;;
62256;SDS011;48240;52.962;5.790;2022-12-05T00:40:13;8.85;;;6.35;;
62256;SDS011;48240;52.962;5.790;2022-12-05T00:42:39;10.10;;;7.18;;
62256;SDS011;48240;52.962;5.790;2022-12-05T00:45:05;10.20;;;6.60;;
62256;SDS011;48240;52.962;5.790;2022-12-05T00:47:35;9.77;;;6.80;;
62256;SDS011;48240;52.962;5.790;2022-12-05T00:50:02;10.00;;;6.93;;
62256;SDS011;48240;52.962;5.790;2022-12-05T00:52:28;9.43;;;6.50;;
62256;SDS011;48240;52.962;5.790;2022-12-05T00:54:54;10.57;;;7.18;;
62256;SDS011;48240;52.962;5.790;2022-12-05T00:57:20;8.93;;;6.22;;
62256;SDS011;48240;52.962;5.790;2022-12-05T05:24:09;4.93;;;3.42;;
62256;SDS011;48240;52.962;5.790;2022-12-05T05:26:36;4.95;;;3.53;;
62256;SDS011;48240;52.962;5.790;2022-12-05T05:29:03;5.35;;;3.70;;
62256;SDS011;48240;52.962;5.790;2022-12-05T05:31:29;4.57;;;3.53;;
62256;SDS011;48240;52.962;5.790;2022-12-05T05:33:55;5.32;;;3.70;;
62256;SDS011;48240;52.962;5.790;2022-12-05T05:36:22;4.47;;;3.28;;
62256;SDS011;48240;52.962;5.790;2022-12-05T05:38:50;4.97;;;3.00;;
62256;SDS011;48240;52.962;5.790;2022-12-05T05:43:43;4.30;;;3.28;;
62256;SDS011;48240;52.962;5.790;2022-12-05T05:46:09;5.32;;;3.50;;
62256;SDS011;48240;52.962;5.790;2022-12-05T05:48:36;5.07;;;3.60;;
62256;SDS011;48240;52.962;5.790;2022-12-05T05:51:02;5.05;;;3.47;;
62256;SDS011;48240;52.962;5.790;2022-12-05T05:53:29;5.32;;;3.35;;
62256;SDS011;48240;52.962;5.790;2022-12-05T05:55:55;3.83;;;3.00;;
62256;SDS011;48240;52.962;5.790;2022-12-05T05:58:21;4.18;;;3.00;;
62256;SDS011;48240;52.962;5.790;2022-12-05T06:00:47;4.45;;;3.15;;
62256;SDS011;48240;52.962;5.790;2022-12-05T06:03:13;4.30;;;3.25;;
62256;SDS011;48240;52.962;5.790;2022-12-05T06:05:39;4.40;;;3.25;;
62256;SDS011;48240;52.962;5.790;2022-12-05T06:08:05;4.30;;;3.17;;
62256;SDS011;48240;52.962;5.790;2022-12-05T06:10:31;4.47;;;2.97;;
62256;SDS011;48240;52.962;5.790;2022-12-05T06:12:58;4.10;;;3.13;;
62256;SDS011;48240;52.962;5.790;2022-12-05T06:15:24;4.32;;;3.10;;
62256;SDS011;48240;52.962;5.790;2022-12-05T06:17:50;4.40;;;2.83;;
62256;SDS011;48240;52.962;5.790;2022-12-05T06:20:17;4.68;;;3.28;;
62256;SDS011;48240;52.962;5.790;2022-12-05T06:22:44;3.28;;;2.88;;
62256;SDS011;48240;52.962;5.790;2022-12-05T06:25:10;4.43;;;2.90;;
62256;SDS011;48240;52.962;5.790;2022-12-05T06:27:36;3.65;;;2.63;;
62256;SDS011;48240;52.962;5.790;2022-12-05T06:30:02;3.50;;;2.60;;
62256;SDS011;48240;52.962;5.790;2022-12-05T06:32:28;3.90;;;2.70;;
62256;SDS011;48240;52.962;5.790;2022-12-05T06:34:54;4.05;;;2.90;;
62256;SDS011;48240;52.962;5.790;2022-12-05T06:37:20;4.25;;;2.90;;
62256;SDS011;48240;52.962;5.790;2022-12-05T06:39:46;4.47;;;2.90;;
62256;SDS011;48240;52.962;5.790;2022-12-05T06:42:12;4.20;;;2.95;;
62256;SDS011;48240;52.962;5.790;2022-12-05T06:44:38;3.53;;;2.58;;
62256;SDS011;48240;52.962;5.790;2022-12-05T06:47:05;3.85;;;2.63;;
62256;SDS011;48240;52.962;5.790;2022-12-05T06:49:31;3.80;;;2.63;;
62256;SDS011;48240;52.962;5.790;2022-12-05T06:52:00;4.60;;;2.60;;
62256;SDS011;48240;52.962;5.790;2022-12-05T06:54:26;4.32;;;2.20;;
62256;SDS011;48240;52.962;5.790;2022-12-05T06:56:52;3.63;;;2.53;;
62256;SDS011;48240;52.962;5.790;2022-12-05T06:59:18;2.75;;;2.42;;
62256;SDS011;48240;52.962;5.790;2022-12-05T07:01:44;2.95;;;2.38;;
62256;SDS011;48240;52.962;5.790;2022-12-05T07:04:15;3.55;;;2.65;;
62256;SDS011;48240;52.962;5.790;2022-12-05T07:06:42;3.58;;;2.70;;
62256;SDS011;48240;52.962;5.790;2022-12-05T07:09:09;3.30;;;2.30;;
62256;SDS011;48240;52.962;5.790;2022-12-05T07:11:36;4.03;;;2.47;;
62256;SDS011;48240;52.962;5.790;2022-12-05T07:14:03;3.40;;;2.42;;
62256;SDS011;48240;52.962;5.790;2022-12-05T07:16:29;4.50;;;2.60;;
62256;SDS011;48240;52.962;5.790;2022-12-05T07:18:55;3.78;;;2.50;;
62256;SDS011;48240;52.962;5.790;2022-12-05T07:21:22;3.03;;;2.30;;
62256;SDS011;48240;52.962;5.790;2022-12-05T07:23:48;4.13;;;2.40;;
62256;SDS011;48240;52.962;5.790;2022-12-05T07:26:16;3.72;;;2.65;;
62256;SDS011;48240;52.962;5.790;2022-12-05T07:28:42;5.82;;;2.30;;
62256;SDS011;48240;52.962;5.790;2022-12-05T07:31:10;3.50;;;2.47;;
62256;SDS011;48240;52.962;5.790;2022-12-05T07:33:36;3.95;;;2.60;;
62256;SDS011;48240;52.962;5.790;2022-12-05T07:36:06;3.13;;;2.30;;
62256;SDS011;48240;52.962;5.790;2022-12-05T07:38:33;3.53;;;2.30;;
62256;SDS011;48240;52.962;5.790;2022-12-05T07:41:02;3.28;;;2.40;;
62256;SDS011;48240;52.962;5.790;2022-12-05T07:43:28;3.85;;;2.28;;
62256;SDS011;48240;52.962;5.790;2022-12-05T07:45:54;2.95;;;2.10;;
62256;SDS011;48240;52.962;5.790;2022-12-05T07:48:21;2.88;;;2.25;;
62256;SDS011;48240;52.962;5.790;2022-12-05T07:50:47;3.08;;;2.33;;
62256;SDS011;48240;52.962;5.790;2022-12-05T07:53:13;3.53;;;2.30;;
62256;SDS011;48240;52.962;5.790;2022-12-05T07:55:39;3.90;;;1.92;;
62256;SDS011;48240;52.962;5.790;2022-12-05T07:58:05;3.55;;;2.30;;
62256;SDS011;48240;52.962;5.790;2022-12-05T08:00:31;4.10;;;2.25;;
62256;SDS011;48240;52.962;5.790;2022-12-05T08:02:57;3.10;;;2.20;;
62256;SDS011;48240;52.962;5.790;2022-12-05T08:05:23;3.05;;;2.00;;
62256;SDS011;48240;52.962;5.790;2022-12-05T08:07:49;2.00;;;1.80;;
62256;SDS011;48240;52.962;5.790;2022-12-05T08:10:15;3.78;;;2.50;;
62256;SDS011;48240;52.962;5.790;2022-12-05T08:12:41;3.50;;;2.08;;
62256;SDS011;48240;52.962;5.790;2022-12-05T08:15:08;3.92;;;2.22;;
62256;SDS011;48240;52.962;5.790;2022-12-05T08:17:34;3.38;;;2.08;;
62256;SDS011;48240;52.962;5.790;2022-12-05T08:20:00;2.70;;;2.10;;
62256;SDS011;48240;52.962;5.790;2022-12-05T08:22:26;3.28;;;2.05;;
62256;SDS011;48240;52.962;5.790;2022-12-05T08:24:52;2.35;;;2.08;;
62256;SDS011;48240;52.962;5.790;2022-12-05T08:27:18;4.22;;;2.33;;
62256;SDS011;48240;52.962;5.790;2022-12-05T08:29:44;4.30;;;2.00;;
62256;SDS011;48240;52.962;5.790;2022-12-05T08:32:10;4.95;;;2.40;;
62256;SDS011;48240;52.962;5.790;2022-12-05T08:34:36;3.50;;;2.00;;
62256;SDS011;48240;52.962;5.790;2022-12-05T08:37:03;3.97;;;2.22;;
62256;SDS011;48240;52.962;5.790;2022-12-05T08:39:29;2.15;;;1.67;;
62256;SDS011;48240;52.962;5.790;2022-12-05T08:41:56;3.10;;;2.10;;
62256;SDS011;48240;52.962;5.790;2022-12-05T08:44:22;2.72;;;2.00;;
62256;SDS011;48240;52.962;5.790;2022-12-05T08:46:49;2.88;;;1.80;;
62256;SDS011;48240;52.962;5.790;2022-12-05T08:49:15;3.17;;;2.25;;
62256;SDS011;48240;52.962;5.790;2022-12-05T08:51:42;2.67;;;1.88;;
62256;SDS011;48240;52.962;5.790;2022-12-05T08:54:08;3.30;;;2.05;;
62256;SDS011;48240;52.962;5.790;2022-12-05T08:56:35;2.90;;;2.20;;
62256;SDS011;48240;52.962;5.790;2022-12-05T08:59:03;4.63;;;2.03;;
62256;SDS011;48240;52.962;5.790;2022-12-05T09:01:29;3.47;;;1.98;;
62256;SDS011;48240;52.962;5.790;2022-12-05T09:03:59;3.47;;;2.05;;
62256;SDS011;48240;52.962;5.790;2022-12-05T09:06:26;4.07;;;1.70;;
62256;SDS011;48240;52.962;5.790;2022-12-05T09:08:54;3.33;;;2.15;;
62256;SDS011;48240;52.962;5.790;2022-12-05T09:11:21;2.70;;;1.77;;
62256;SDS011;48240;52.962;5.790;2022-12-05T09:13:51;2.40;;;2.20;;
62256;SDS011;48240;52.962;5.790;2022-12-05T09:16:19;3.90;;;1.90;;
62256;SDS011;48240;52.962;5.790;2022-12-05T09:18:45;4.47;;;2.10;;
62256;SDS011;48240;52.962;5.790;2022-12-05T09:21:22;4.43;;;1.85;;
62256;SDS011;48240;52.962;5.790;2022-12-05T09:23:48;5.00;;;1.98;;
62256;SDS011;48240;52.962;5.790;2022-12-05T09:26:15;3.45;;;1.88;;
62256;SDS011;48240;52.962;5.790;2022-12-05T09:28:42;2.08;;;1.63;;
62256;SDS011;48240;52.962;5.790;2022-12-05T09:31:10;3.70;;;1.83;;
62256;SDS011;48240;52.962;5.790;2022-12-05T09:33:36;2.55;;;1.90;;
62256;SDS011;48240;52.962;5.790;2022-12-05T09:36:03;2.85;;;1.67;;
62256;SDS011;48240;52.962;5.790;2022-12-05T09:38:29;2.47;;;1.77;;
62256;SDS011;48240;52.962;5.790;2022-12-05T09:41:12;3.42;;;2.20;;
62256;SDS011;48240;52.962;5.790;2022-12-05T09:46:11;3.53;;;1.80;;
62256;SDS011;48240;52.962;5.790;2022-12-05T09:48:40;2.17;;;1.70;;
62256;SDS011;48240;52.962;5.790;2022-12-05T09:51:09;3.33;;;1.95;;
62256;SDS011;48240;52.962;5.790;2022-12-05T09:53:36;2.80;;;1.80;;
62256;SDS011;48240;52.962;5.790;2022-12-05T09:58:51;2.42;;;1.80;;
62256;SDS011;48240;52.962;5.790;2022-12-05T10:01:25;2.97;;;2.07;;
62256;SDS011;48240;52.962;5.790;2022-12-05T10:06:24;6.80;;;2.40;;
62256;SDS011;48240;52.962;5.790;2022-12-05T10:11:44;8.95;;;3.00;;
62256;SDS011;48240;52.962;5.790;2022-12-05T10:14:25;14.10;;;3.67;;
62256;SDS011;48240;52.962;5.790;2022-12-05T10:16:53;15.05;;;3.95;;
62256;SDS011;48240;52.962;5.790;2022-12-05T10:19:22;17.70;;;4.10;;
62256;SDS011;48240;52.962;5.790;2022-12-05T10:22:36;18.97;;;3.87;;
62256;SDS011;48240;52.962;5.790;2022-12-05T10:24:47;14.27;;;4.38;;
62256;SDS011;48240;52.962;5.790;2022-12-05T10:27:18;17.83;;;3.95;;
62256;SDS011;48240;52.962;5.790;2022-12-05T10:29:46;19.48;;;4.60;;
62256;SDS011;48240;52.962;5.790;2022-12-05T10:32:19;11.70;;;3.95;;
62256;SDS011;48240;52.962;5.790;2022-12-05T10:37:19;15.00;;;3.80;;
62256;SDS011;48240;52.962;5.790;2022-12-05T10:39:47;12.57;;;3.90;;
62256;SDS011;48240;52.962;5.790;2022-12-05T10:44:45;11.23;;;3.75;;
62256;SDS011;48240;52.962;5.790;2022-12-05T10:47:12;11.40;;;3.92;;
62256;SDS011;48240;52.962;5.790;2022-12-05T10:49:38;16.30;;;3.97;;
62256;SDS011;48240;52.962;5.790;2022-12-05T10:52:04;11.90;;;3.53;;
62256;SDS011;48240;52.962;5.790;2022-12-05T10:54:32;10.85;;;3.70;;
62256;SDS011;48240;52.962;5.790;2022-12-05T10:57:00;10.90;;;3.75;;
62256;SDS011;48240;52.962;5.790;2022-12-05T10:59:45;13.48;;;3.78;;
62256;SDS011;48240;52.962;5.790;2022-12-05T11:02:32;13.60;;;3.42;;
62256;SDS011;48240;52.962;5.790;2022-12-05T11:04:58;11.15;;;3.85;;
62256;SDS011;48240;52.962;5.790;2022-12-05T11:09:53;16.55;;;4.03;;
62256;SDS011;48240;52.962;5.790;2022-12-05T11:12:20;19.33;;;4.32;;
62256;SDS011;48240;52.962;5.790;2022-12-05T11:14:57;13.25;;;4.20;;
62256;SDS011;48240;52.962;5.790;2022-12-05T11:17:26;9.98;;;3.72;;
62256;SDS011;48240;52.962;5.790;2022-12-05T11:19:52;14.57;;;4.10;;
62256;SDS011;48240;52.962;5.790;2022-12-05T11:22:18;13.15;;;4.18;;
62256;SDS011;48240;52.962;5.790;2022-12-05T11:24:47;13.57;;;3.80;;
62256;SDS011;48240;52.962;5.790;2022-12-05T11:29:43;16.05;;;3.90;;
62256;SDS011;48240;52.962;5.790;2022-12-05T11:32:16;12.07;;;3.78;;
62256;SDS011;48240;52.962;5.790;2022-12-05T11:37:13;26.73;;;4.28;;
62256;SDS011;48240;52.962;5.790;2022-12-05T11:39:40;16.90;;;4.32;;
62256;SDS011;48240;52.962;5.790;2022-12-05T11:42:11;14.13;;;4.03;;
62256;SDS011;48240;52.962;5.790;2022-12-05T11:52:30;12.55;;;4.00;;
62256;SDS011;48240;52.962;5.790;2022-12-05T11:55:14;13.27;;;4.25;;
62256;SDS011;48240;52.962;5.790;2022-12-05T12:23:50;9.45;;;3.70;;
62256;SDS011;48240;52.962;5.790;2022-12-05T12:29:08;8.93;;;3.42;;
62256;SDS011;48240;52.962;5.790;2022-12-05T12:31:42;9.07;;;3.58;;
62256;SDS011;48240;52.962;5.790;2022-12-05T12:36:44;11.27;;;3.42;;
62256;SDS011;48240;52.962;5.790;2022-12-05T12:41:41;9.80;;;3.53;;
62256;SDS011;48240;52.962;5.790;2022-12-05T12:46:51;9.48;;;3.70;;
62256;SDS011;48240;52.962;5.790;2022-12-05T12:51:48;8.30;;;3.20;;
62256;SDS011;48240;52.962;5.790;2022-12-05T12:54:21;9.13;;;3.10;;
62256;SDS011;48240;52.962;5.790;2022-12-05T13:01:57;8.43;;;3.10;;
62256;SDS011;48240;52.962;5.790;2022-12-05T13:05:08;8.00;;;3.50;;
62256;SDS011;48240;52.962;5.790;2022-12-05T13:07:22;8.40;;;3.53;;
62256;SDS011;48240;52.962;5.790;2022-12-05T13:09:52;8.68;;;3.40;;
62256;SDS011;48240;52.962;5.790;2022-12-05T13:12:23;8.43;;;3.45;;
62256;SDS011;48240;52.962;5.790;2022-12-05T13:14:51;8.63;;;3.35;;
62256;SDS011;48240;52.962;5.790;2022-12-05T13:17:19;6.90;;;3.42;;
62256;SDS011;48240;52.962;5.790;2022-12-05T13:19:47;8.60;;;3.25;;
62256;SDS011;48240;52.962;5.790;2022-12-05T13:22:14;6.75;;;3.20;;
62256;SDS011;48240;52.962;5.790;2022-12-05T13:24:41;7.18;;;3.05;;
62256;SDS011;48240;52.962;5.790;2022-12-05T13:27:12;7.03;;;2.95;;
62256;SDS011;48240;52.962;5.790;2022-12-05T13:29:40;9.45;;;3.28;;
62256;SDS011;48240;52.962;5.790;2022-12-05T13:32:22;6.07;;;3.05;;
62256;SDS011;48240;52.962;5.790;2022-12-05T13:34:49;8.45;;;3.20;;
62256;SDS011;48240;52.962;5.790;2022-12-05T13:37:25;7.25;;;3.30;;
62256;SDS011;48240;52.962;5.790;2022-12-05T13:40:24;4.88;;;2.92;;
62256;SDS011;48240;52.962;5.790;2022-12-05T13:43:11;7.13;;;3.08;;
62256;SDS011;48240;52.962;5.790;2022-12-05T13:45:38;6.00;;;3.28;;
62256;SDS011;48240;52.962;5.790;2022-12-05T13:53:03;5.25;;;3.20;;
62256;SDS011;48240;52.962;5.790;2022-12-05T13:57:57;5.25;;;2.60;;
62256;SDS011;48240;52.962;5.790;2022-12-05T14:00:25;5.90;;;2.90;;
62256;SDS011;48240;52.962;5.790;2022-12-05T14:07:47;5.90;;;2.83;;
62256;SDS011;48240;52.962;5.790;2022-12-05T14:10:15;5.60;;;2.90;;
62256;SDS011;48240;52.962;5.790;2022-12-05T14:12:52;4.35;;;2.40;;
62256;SDS011;48240;52.962;5.790;2022-12-05T14:15:37;7.43;;;2.60;;
62256;SDS011;48240;52.962;5.790;2022-12-05T14:28:11;5.05;;;2.75;;
62256;SDS011;48240;52.962;5.790;2022-12-05T14:30:44;4.80;;;2.50;;
62256;SDS011;48240;52.962;5.790;2022-12-05T14:33:15;5.20;;;2.47;;
62256;SDS011;48240;52.962;5.790;2022-12-05T14:35:46;5.75;;;2.33;;
62256;SDS011;48240;52.962;5.790;2022-12-05T14:38:31;7.05;;;2.50;;
62256;SDS011;48240;52.962;5.790;2022-12-05T14:41:22;4.10;;;2.22;;
62256;SDS011;48240;52.962;5.790;2022-12-05T14:43:53;6.15;;;2.50;;
62256;SDS011;48240;52.962;5.790;2022-12-05T14:46:30;5.03;;;2.35;;
62256;SDS011;48240;52.962;5.790;2022-12-05T14:48:56;4.07;;;2.47;;
62256;SDS011;48240;52.962;5.790;2022-12-05T14:51:44;3.75;;;2.30;;
62256;SDS011;48240;52.962;5.790;2022-12-05T14:54:14;3.38;;;2.40;;
62256;SDS011;48240;52.962;5.790;2022-12-05T14:56:48;3.95;;;2.50;;
62256;SDS011;48240;52.962;5.790;2022-12-05T14:59:20;4.97;;;2.10;;
62256;SDS011;48240;52.962;5.790;2022-12-05T15:01:49;4.00;;;2.55;;
62256;SDS011;48240;52.962;5.790;2022-12-05T15:06:46;4.47;;;2.30;;
62256;SDS011;48240;52.962;5.790;2022-12-05T15:11:59;3.75;;;2.20;;
62256;SDS011;48240;52.962;5.790;2022-12-05T15:14:26;4.38;;;2.20;;
62256;SDS011;48240;52.962;5.790;2022-12-05T15:16:54;4.35;;;2.15;;
62256;SDS011;48240;52.962;5.790;2022-12-05T15:19:21;4.10;;;2.20;;
62256;SDS011;48240;52.962;5.790;2022-12-05T15:21:52;5.05;;;2.30;;
62256;SDS011;48240;52.962;5.790;2022-12-05T15:24:20;4.18;;;2.40;;
62256;SDS011;48240;52.962;5.790;2022-12-05T15:26:53;3.67;;;1.98;;
62256;SDS011;48240;52.962;5.790;2022-12-05T15:32:02;3.22;;;1.90;;
62256;SDS011;48240;52.962;5.790;2022-12-05T15:42:29;3.28;;;2.10;;
62256;SDS011;48240;52.962;5.790;2022-12-05T15:47:49;2.78;;;1.77;;
62256;SDS011;48240;52.962;5.790;2022-12-05T15:52:49;4.50;;;2.00;;
62256;SDS011;48240;52.962;5.790;2022-12-05T15:55:19;4.20;;;2.25;;
62256;SDS011;48240;52.962;5.790;2022-12-05T15:57:52;4.88;;;2.40;;
62256;SDS011;48240;52.962;5.790;2022-12-05T16:00:19;4.28;;;1.88;;
62256;SDS011;48240;52.962;5.790;2022-12-05T16:05:27;4.28;;;2.33;;
62256;SDS011;48240;52.962;5.790;2022-12-05T16:07:54;3.50;;;2.10;;
62256;SDS011;48240;52.962;5.790;2022-12-05T16:10:20;6.28;;;1.90;;
62256;SDS011;48240;52.962;5.790;2022-12-05T16:12:47;3.38;;;1.92;;
62256;SDS011;48240;52.962;5.790;2022-12-05T16:15:15;3.42;;;1.95;;
62256;SDS011;48240;52.962;5.790;2022-12-05T16:17:46;3.80;;;2.20;;
62256;SDS011;48240;52.962;5.790;2022-12-05T16:20:23;5.32;;;2.00;;
62256;SDS011;48240;52.962;5.790;2022-12-05T16:22:51;4.22;;;1.98;;
62256;SDS011;48240;52.962;5.790;2022-12-05T16:25:20;2.88;;;1.70;;
62256;SDS011;48240;52.962;5.790;2022-12-05T16:30:22;4.00;;;2.15;;
62256;SDS011;48240;52.962;5.790;2022-12-05T16:32:49;3.47;;;1.80;;
62256;SDS011;48240;52.962;5.790;2022-12-05T16:38:01;2.33;;;1.70;;
62256;SDS011;48240;52.962;5.790;2022-12-05T16:40:27;2.83;;;2.00;;
62256;SDS011;48240;52.962;5.790;2022-12-05T16:43:00;3.83;;;2.10;;
62256;SDS011;48240;52.962;5.790;2022-12-05T16:45:37;5.93;;;2.25;;
62256;SDS011;48240;52.962;5.790;2022-12-05T16:48:12;3.83;;;1.92;;
62256;SDS011;48240;52.962;5.790;2022-12-05T16:50:38;5.47;;;2.20;;
62256;SDS011;48240;52.962;5.790;2022-12-05T16:55:37;28.52;;;18.63;;
62256;SDS011;48240;52.962;5.790;2022-12-05T16:58:03;15.77;;;7.13;;
62256;SDS011;48240;52.962;5.790;2022-12-05T17:00:30;8.07;;;5.25;;
62256;SDS011;48240;52.962;5.790;2022-12-05T17:02:57;13.45;;;5.68;;
62256;SDS011;48240;52.962;5.790;2022-12-05T17:05:23;13.27;;;5.53;;
62256;SDS011;48240;52.962;5.790;2022-12-05T17:07:50;13.57;;;5.63;;
62256;SDS011;48240;52.962;5.790;2022-12-05T17:10:16;8.10;;;4.63;;
62256;SDS011;48240;52.962;5.790;2022-12-05T17:12:42;10.20;;;4.75;;
62256;SDS011;48240;52.962;5.790;2022-12-05T17:15:26;9.40;;;4.53;;
62256;SDS011;48240;52.962;5.790;2022-12-05T17:17:52;10.60;;;4.53;;
62256;SDS011;48240;52.962;5.790;2022-12-05T17:20:19;8.38;;;4.57;;
62256;SDS011;48240;52.962;5.790;2022-12-05T17:22:45;9.30;;;4.32;;
62256;SDS011;48240;52.962;5.790;2022-12-05T17:25:46;14.82;;;4.38;;
62256;SDS011;48240;52.962;5.790;2022-12-05T17:28:04;13.05;;;4.15;;
62256;SDS011;48240;52.962;5.790;2022-12-05T17:30:30;8.20;;;4.20;;
62256;SDS011;48240;52.962;5.790;2022-12-05T17:32:58;6.95;;;4.18;;
62256;SDS011;48240;52.962;5.790;2022-12-05T17:35:26;9.70;;;4.20;;
62256;SDS011;48240;52.962;5.790;2022-12-05T17:37:52;4.70;;;3.63;;
62256;SDS011;48240;52.962;5.790;2022-12-05T17:40:19;10.57;;;3.80;;
62256;SDS011;48240;52.962;5.790;2022-12-05T17:42:45;10.27;;;3.95;;
62256;SDS011;48240;52.962;5.790;2022-12-05T17:45:12;10.82;;;3.58;;
62256;SDS011;48240;52.962;5.790;2022-12-05T17:47:38;7.13;;;3.70;;
62256;SDS011;48240;52.962;5.790;2022-12-05T17:50:04;9.27;;;3.70;;
62256;SDS011;48240;52.962;5.790;2022-12-05T17:52:32;9.95;;;3.92;;
62256;SDS011;48240;52.962;5.790;2022-12-05T17:54:58;8.23;;;3.75;;
62256;SDS011;48240;52.962;5.790;2022-12-05T17:57:24;7.20;;;3.40;;
62256;SDS011;48240;52.962;5.790;2022-12-05T17:59:50;8.20;;;3.67;;
62256;SDS011;48240;52.962;5.790;2022-12-05T18:02:16;9.20;;;3.38;;
62256;SDS011;48240;52.962;5.790;2022-12-05T18:04:44;6.07;;;3.70;;
62256;SDS011;48240;52.962;5.790;2022-12-05T18:07:10;6.88;;;3.47;;
62256;SDS011;48240;52.962;5.790;2022-12-05T18:09:36;7.40;;;3.40;;
62256;SDS011;48240;52.962;5.790;2022-12-05T18:12:03;4.78;;;3.28;;
62256;SDS011;48240;52.962;5.790;2022-12-05T18:14:29;6.05;;;3.40;;
62256;SDS011;48240;52.962;5.790;2022-12-05T18:16:59;5.10;;;3.30;;
62256;SDS011;48240;52.962;5.790;2022-12-05T18:19:25;6.03;;;3.13;;
62256;SDS011;48240;52.962;5.790;2022-12-05T18:21:51;5.80;;;3.25;;
62256;SDS011;48240;52.962;5.790;2022-12-05T18:24:18;5.32;;;3.28;;
62256;SDS011;48240;52.962;5.790;2022-12-05T18:26:44;6.25;;;3.10;;
62256;SDS011;48240;52.962;5.790;2022-12-05T18:29:11;5.85;;;2.80;;
62256;SDS011;48240;52.962;5.790;2022-12-05T18:31:37;5.38;;;3.20;;
62256;SDS011;48240;52.962;5.790;2022-12-05T18:34:05;6.40;;;2.70;;
62256;SDS011;48240;52.962;5.790;2022-12-05T18:36:32;6.10;;;2.92;;
62256;SDS011;48240;52.962;5.790;2022-12-05T18:38:58;7.15;;;3.17;;
62256;SDS011;48240;52.962;5.790;2022-12-05T18:41:25;11.18;;;3.20;;
62256;SDS011;48240;52.962;5.790;2022-12-05T18:43:51;6.40;;;2.90;;
62256;SDS011;48240;52.962;5.790;2022-12-05T18:46:17;8.63;;;2.80;;
62256;SDS011;48240;52.962;5.790;2022-12-05T18:48:44;6.15;;;2.60;;
62256;SDS011;48240;52.962;5.790;2022-12-05T18:51:14;7.80;;;2.72;;
62256;SDS011;48240;52.962;5.790;2022-12-05T18:53:40;6.57;;;2.95;;
62256;SDS011;48240;52.962;5.790;2022-12-05T18:56:10;7.22;;;2.90;;
62256;SDS011;48240;52.962;5.790;2022-12-05T18:58:36;4.82;;;2.55;;
62256;SDS011;48240;52.962;5.790;2022-12-05T19:01:10;11.57;;;2.80;;
62256;SDS011;48240;52.962;5.790;2022-12-05T19:03:36;6.32;;;2.83;;
62256;SDS011;48240;52.962;5.790;2022-12-05T19:06:12;4.80;;;2.60;;
62256;SDS011;48240;52.962;5.790;2022-12-05T19:08:39;8.63;;;2.60;;
62256;SDS011;48240;52.962;5.790;2022-12-05T19:11:05;4.53;;;2.67;;
62256;SDS011;48240;52.962;5.790;2022-12-05T19:13:31;5.65;;;2.70;;
62256;SDS011;48240;52.962;5.790;2022-12-05T19:16:01;7.38;;;3.15;;
62256;SDS011;48240;52.962;5.790;2022-12-05T19:18:28;5.82;;;3.00;;
62256;SDS011;48240;52.962;5.790;2022-12-05T19:20:54;5.90;;;2.65;;
62256;SDS011;48240;52.962;5.790;2022-12-05T19:23:20;5.00;;;2.38;;
62256;SDS011;48240;52.962;5.790;2022-12-05T19:25:46;5.95;;;2.90;;
62256;SDS011;48240;52.962;5.790;2022-12-05T19:28:12;4.55;;;2.53;;
62256;SDS011;48240;52.962;5.790;2022-12-05T19:30:38;5.85;;;2.60;;
62256;SDS011;48240;52.962;5.790;2022-12-05T19:33:04;4.18;;;2.75;;
62256;SDS011;48240;52.962;5.790;2022-12-05T19:35:33;7.18;;;2.55;;
62256;SDS011;48240;52.962;5.790;2022-12-05T19:37:59;6.20;;;2.80;;
62256;SDS011;48240;52.962;5.790;2022-12-05T19:40:25;8.60;;;3.05;;
62256;SDS011;48240;52.962;5.790;2022-12-05T19:42:51;4.72;;;2.78;;
62256;SDS011;48240;52.962;5.790;2022-12-05T19:45:17;5.63;;;2.90;;
62256;SDS011;48240;52.962;5.790;2022-12-05T19:47:43;11.48;;;2.78;;
62256;SDS011;48240;52.962;5.790;2022-12-05T19:50:10;7.10;;;2.35;;
62256;SDS011;48240;52.962;5.790;2022-12-05T19:52:36;5.53;;;3.10;;
62256;SDS011;48240;52.962;5.790;2022-12-05T19:55:02;5.95;;;2.83;;
62256;SDS011;48240;52.962;5.790;2022-12-05T19:57:28;6.45;;;2.95;;
62256;SDS011;48240;52.962;5.790;2022-12-05T19:59:54;6.07;;;2.85;;
62256;SDS011;48240;52.962;5.790;2022-12-05T20:02:20;7.40;;;2.85;;
62256;SDS011;48240;52.962;5.790;2022-12-05T20:04:48;6.32;;;2.50;;
62256;SDS011;48240;52.962;5.790;2022-12-05T20:07:14;6.38;;;2.67;;
62256;SDS011;48240;52.962;5.790;2022-12-05T20:09:40;6.25;;;2.60;;
62256;SDS011;48240;52.962;5.790;2022-12-05T20:12:06;5.45;;;2.80;;
62256;SDS011;48240;52.962;5.790;2022-12-05T20:14:32;7.60;;;2.75;;
62256;SDS011;48240;52.962;5.790;2022-12-05T20:16:58;4.47;;;2.45;;
62256;SDS011;48240;52.962;5.790;2022-12-05T20:19:24;4.80;;;2.30;;
62256;SDS011;48240;52.962;5.790;2022-12-05T20:21:51;4.57;;;2.60;;
62256;SDS011;48240;52.962;5.790;2022-12-05T20:24:19;6.63;;;2.80;;
62256;SDS011;48240;52.962;5.790;2022-12-05T20:26:45;8.05;;;2.42;;
62256;SDS011;48240;52.962;5.790;2022-12-05T20:29:11;6.07;;;2.80;;
62256;SDS011;48240;52.962;5.790;2022-12-05T20:31:38;7.30;;;2.50;;
62256;SDS011;48240;52.962;5.790;2022-12-05T20:34:05;4.22;;;2.42;;
62256;SDS011;48240;52.962;5.790;2022-12-05T20:36:32;4.95;;;2.22;;
62256;SDS011;48240;52.962;5.790;2022-12-05T20:39:09;4.97;;;2.20;;
62256;SDS011;48240;52.962;5.790;2022-12-05T20:41:37;5.18;;;2.40;;
62256;SDS011;48240;52.962;5.790;2022-12-05T20:44:04;9.27;;;2.63;;
62256;SDS011;48240;52.962;5.790;2022-12-05T20:46:30;5.60;;;2.47;;
62256;SDS011;48240;52.962;5.790;2022-12-05T20:48:57;3.42;;;2.25;;
62256;SDS011;48240;52.962;5.790;2022-12-05T20:53:49;3.85;;;2.38;;
62256;SDS011;48240;52.962;5.790;2022-12-05T20:56:16;7.18;;;2.40;;
62256;SDS011;48240;52.962;5.790;2022-12-05T20:58:44;4.30;;;2.25;;
62256;SDS011;48240;52.962;5.790;2022-12-05T21:01:10;5.07;;;2.50;;
62256;SDS011;48240;52.962;5.790;2022-12-05T21:03:40;7.28;;;2.40;;
62256;SDS011;48240;52.962;5.790;2022-12-05T21:06:07;5.82;;;2.33;;
62256;SDS011;48240;52.962;5.790;2022-12-05T21:08:34;5.20;;;2.53;;
62256;SDS011;48240;52.962;5.790;2022-12-05T21:11:00;4.88;;;2.60;;
62256;SDS011;48240;52.962;5.790;2022-12-05T21:13:26;4.90;;;2.15;;
62256;SDS011;48240;52.962;5.790;2022-12-05T21:15:52;4.63;;;2.50;;
62256;SDS011;48240;52.962;5.790;2022-12-05T21:18:18;4.28;;;2.10;;
62256;SDS011;48240;52.962;5.790;2022-12-05T21:20:53;3.92;;;2.20;;
62256;SDS011;48240;52.962;5.790;2022-12-05T21:23:19;4.07;;;2.15;;
62256;SDS011;48240;52.962;5.790;2022-12-05T21:25:46;6.13;;;2.13;;
62256;SDS011;48240;52.962;5.790;2022-12-05T21:28:12;5.95;;;2.20;;
62256;SDS011;48240;52.962;5.790;2022-12-05T21:30:38;4.47;;;2.30;;
62256;SDS011;48240;52.962;5.790;2022-12-05T21:33:04;6.13;;;2.22;;